Weather at Reno Tahoe International Airport

Public forecast

Using degrees Fahrenheit for public forecast. Weather courtesy of forecast.io.

Current aviation weather report (METAR) for Reno Tahoe International Airport

Report is more than 2 hours old.

2024/06/24 20:55 (retrieved 3 hours ago)

KRNO 242055Z 21007G19KT 170V240 10SM FEW095 34/13 A3003 RMK AO2 PK WND 16029/1957 SLP103 T03440128 56014

Aviation forecast (TAF) for Reno Tahoe International Airport

2024/06/24 18:30 (retrieved 6 hours ago)

TAF KRNO 241727Z 2418/2518 20007KT P6SM FEW090 FM242100 27017G26KT P6SM FEW090 FM250400 28010G17KT P6SM SCT250 FM250700 VRB04KT P6SM SCT140 BKN200